sensor_id;sensor_type;location;lat;lon;timestamp;P1;durP1;ratioP1;P2;durP2;ratioP2
2544;SDS011;36212;48.838;9.142;2022-08-19T00:00:07;14.77;;;13.47;;
2544;SDS011;36212;48.838;9.142;2022-08-19T00:02:41;15.40;;;14.10;;
2544;SDS011;36212;48.838;9.142;2022-08-19T00:05:20;16.70;;;15.30;;
2544;SDS011;36212;48.838;9.142;2022-08-19T00:07:53;15.80;;;14.50;;
2544;SDS011;36212;48.838;9.142;2022-08-19T00:10:25;16.20;;;14.90;;
2544;SDS011;36212;48.838;9.142;2022-08-19T00:12:57;15.90;;;14.50;;
2544;SDS011;36212;48.838;9.142;2022-08-19T00:15:30;16.40;;;14.97;;
2544;SDS011;36212;48.838;9.142;2022-08-19T00:18:02;15.77;;;14.47;;
2544;SDS011;36212;48.838;9.142;2022-08-19T00:20:34;15.37;;;13.97;;
2544;SDS011;36212;48.838;9.142;2022-08-19T00:23:10;16.37;;;14.97;;
2544;SDS011;36212;48.838;9.142;2022-08-19T00:25:42;15.57;;;14.37;;
2544;SDS011;36212;48.838;9.142;2022-08-19T00:28:19;16.20;;;14.90;;
2544;SDS011;36212;48.838;9.142;2022-08-19T00:30:52;15.07;;;13.77;;
2544;SDS011;36212;48.838;9.142;2022-08-19T00:33:25;14.30;;;13.20;;
2544;SDS011;36212;48.838;9.142;2022-08-19T00:36:04;15.00;;;13.70;;
2544;SDS011;36212;48.838;9.142;2022-08-19T00:38:39;14.80;;;13.70;;
2544;SDS011;36212;48.838;9.142;2022-08-19T00:41:15;14.93;;;13.63;;
2544;SDS011;36212;48.838;9.142;2022-08-19T00:44:02;15.80;;;14.50;;
2544;SDS011;36212;48.838;9.142;2022-08-19T00:46:44;15.17;;;13.97;;
2544;SDS011;36212;48.838;9.142;2022-08-19T00:49:35;15.27;;;13.97;;
2544;SDS011;36212;48.838;9.142;2022-08-19T00:52:24;15.40;;;14.00;;
2544;SDS011;36212;48.838;9.142;2022-08-19T00:55:05;15.40;;;14.20;;
2544;SDS011;36212;48.838;9.142;2022-08-19T00:57:49;16.63;;;15.27;;
2544;SDS011;36212;48.838;9.142;2022-08-19T01:00:33;15.20;;;14.00;;
2544;SDS011;36212;48.838;9.142;2022-08-19T01:03:11;15.83;;;14.43;;
2544;SDS011;36212;48.838;9.142;2022-08-19T01:05:54;15.47;;;14.03;;
2544;SDS011;36212;48.838;9.142;2022-08-19T01:08:33;15.53;;;14.27;;
2544;SDS011;36212;48.838;9.142;2022-08-19T01:11:05;15.10;;;13.87;;
2544;SDS011;36212;48.838;9.142;2022-08-19T01:13:39;16.47;;;15.17;;
2544;SDS011;36212;48.838;9.142;2022-08-19T01:16:22;15.33;;;14.03;;
2544;SDS011;36212;48.838;9.142;2022-08-19T01:18:57;15.47;;;14.10;;
2544;SDS011;36212;48.838;9.142;2022-08-19T01:21:44;16.60;;;15.30;;
2544;SDS011;36212;48.838;9.142;2022-08-19T01:24:46;17.33;;;15.80;;
2544;SDS011;36212;48.838;9.142;2022-08-19T01:27:21;16.43;;;15.13;;
2544;SDS011;36212;48.838;9.142;2022-08-19T01:29:55;15.70;;;14.40;;
2544;SDS011;36212;48.838;9.142;2022-08-19T01:32:27;17.87;;;16.43;;
2544;SDS011;36212;48.838;9.142;2022-08-19T01:35:05;17.07;;;15.37;;
2544;SDS011;36212;48.838;9.142;2022-08-19T01:37:45;16.43;;;14.93;;
2544;SDS011;36212;48.838;9.142;2022-08-19T01:40:31;17.77;;;16.27;;
2544;SDS011;36212;48.838;9.142;2022-08-19T01:43:07;15.67;;;14.47;;
2544;SDS011;36212;48.838;9.142;2022-08-19T01:45:39;17.20;;;15.73;;
2544;SDS011;36212;48.838;9.142;2022-08-19T01:48:12;16.47;;;15.07;;
2544;SDS011;36212;48.838;9.142;2022-08-19T01:50:45;18.43;;;16.83;;
2544;SDS011;36212;48.838;9.142;2022-08-19T01:53:19;17.50;;;15.90;;
2544;SDS011;36212;48.838;9.142;2022-08-19T01:55:53;16.33;;;14.93;;
2544;SDS011;36212;48.838;9.142;2022-08-19T01:58:27;20.40;;;18.60;;
2544;SDS011;36212;48.838;9.142;2022-08-19T02:01:09;18.07;;;16.47;;
2544;SDS011;36212;48.838;9.142;2022-08-19T02:03:42;21.03;;;19.13;;
2544;SDS011;36212;48.838;9.142;2022-08-19T02:06:14;19.57;;;17.67;;
2544;SDS011;36212;48.838;9.142;2022-08-19T02:08:48;18.53;;;16.87;;
2544;SDS011;36212;48.838;9.142;2022-08-19T02:11:23;20.30;;;18.30;;
2544;SDS011;36212;48.838;9.142;2022-08-19T02:14:01;20.80;;;18.80;;
2544;SDS011;36212;48.838;9.142;2022-08-19T02:16:37;19.70;;;17.67;;
2544;SDS011;36212;48.838;9.142;2022-08-19T02:19:10;18.50;;;17.00;;
2544;SDS011;36212;48.838;9.142;2022-08-19T02:21:42;20.60;;;18.67;;
2544;SDS011;36212;48.838;9.142;2022-08-19T02:24:15;19.80;;;18.00;;
2544;SDS011;36212;48.838;9.142;2022-08-19T02:26:47;19.23;;;17.63;;
2544;SDS011;36212;48.838;9.142;2022-08-19T02:29:19;20.83;;;18.93;;
2544;SDS011;36212;48.838;9.142;2022-08-19T02:31:51;20.07;;;18.20;;
2544;SDS011;36212;48.838;9.142;2022-08-19T02:34:23;20.37;;;18.13;;
2544;SDS011;36212;48.838;9.142;2022-08-19T02:36:56;20.00;;;18.20;;
2544;SDS011;36212;48.838;9.142;2022-08-19T02:39:34;19.40;;;17.70;;
2544;SDS011;36212;48.838;9.142;2022-08-19T02:42:06;22.70;;;20.50;;
2544;SDS011;36212;48.838;9.142;2022-08-19T02:44:39;21.57;;;19.67;;
2544;SDS011;36212;48.838;9.142;2022-08-19T02:47:10;23.33;;;21.03;;
2544;SDS011;36212;48.838;9.142;2022-08-19T02:49:45;20.80;;;19.00;;
2544;SDS011;36212;48.838;9.142;2022-08-19T02:52:19;22.40;;;20.43;;
2544;SDS011;36212;48.838;9.142;2022-08-19T02:54:55;22.70;;;20.70;;
2544;SDS011;36212;48.838;9.142;2022-08-19T02:57:29;23.20;;;20.80;;
2544;SDS011;36212;48.838;9.142;2022-08-19T03:00:06;22.57;;;20.53;;
2544;SDS011;36212;48.838;9.142;2022-08-19T03:02:43;22.83;;;20.73;;
2544;SDS011;36212;48.838;9.142;2022-08-19T03:05:16;22.37;;;20.23;;
2544;SDS011;36212;48.838;9.142;2022-08-19T03:07:59;23.47;;;21.37;;
2544;SDS011;36212;48.838;9.142;2022-08-19T03:10:32;21.77;;;19.90;;
2544;SDS011;36212;48.838;9.142;2022-08-19T03:13:11;23.53;;;21.50;;
2544;SDS011;36212;48.838;9.142;2022-08-19T03:15:48;22.80;;;20.80;;
2544;SDS011;36212;48.838;9.142;2022-08-19T03:18:21;23.57;;;21.10;;
2544;SDS011;36212;48.838;9.142;2022-08-19T03:20:54;23.00;;;20.80;;
2544;SDS011;36212;48.838;9.142;2022-08-19T03:23:27;24.00;;;21.73;;
2544;SDS011;36212;48.838;9.142;2022-08-19T03:26:02;22.93;;;20.93;;
2544;SDS011;36212;48.838;9.142;2022-08-19T03:28:47;22.60;;;20.50;;
2544;SDS011;36212;48.838;9.142;2022-08-19T03:31:48;23.40;;;21.40;;
2544;SDS011;36212;48.838;9.142;2022-08-19T03:34:25;22.97;;;20.97;;
2544;SDS011;36212;48.838;9.142;2022-08-19T03:37:05;24.43;;;21.87;;
2544;SDS011;36212;48.838;9.142;2022-08-19T03:39:40;25.63;;;23.03;;
2544;SDS011;36212;48.838;9.142;2022-08-19T03:42:13;23.43;;;21.33;;
2544;SDS011;36212;48.838;9.142;2022-08-19T03:45:05;23.27;;;21.10;;
2544;SDS011;36212;48.838;9.142;2022-08-19T03:47:40;23.47;;;21.43;;
2544;SDS011;36212;48.838;9.142;2022-08-19T03:50:12;26.27;;;23.80;;
2544;SDS011;36212;48.838;9.142;2022-08-19T03:52:51;26.27;;;23.90;;
2544;SDS011;36212;48.838;9.142;2022-08-19T03:55:24;24.93;;;22.73;;
2544;SDS011;36212;48.838;9.142;2022-08-19T03:57:55;25.30;;;22.97;;
2544;SDS011;36212;48.838;9.142;2022-08-19T04:00:29;26.83;;;24.33;;
2544;SDS011;36212;48.838;9.142;2022-08-19T04:03:02;25.80;;;23.23;;
2544;SDS011;36212;48.838;9.142;2022-08-19T04:05:35;26.63;;;24.23;;
2544;SDS011;36212;48.838;9.142;2022-08-19T04:08:07;25.87;;;23.67;;
2544;SDS011;36212;48.838;9.142;2022-08-19T04:10:49;25.63;;;23.27;;
2544;SDS011;36212;48.838;9.142;2022-08-19T04:13:21;25.87;;;23.53;;
2544;SDS011;36212;48.838;9.142;2022-08-19T04:15:53;27.30;;;24.77;;
2544;SDS011;36212;48.838;9.142;2022-08-19T04:18:25;25.90;;;23.50;;
2544;SDS011;36212;48.838;9.142;2022-08-19T04:21:00;25.80;;;23.40;;
2544;SDS011;36212;48.838;9.142;2022-08-19T04:23:33;26.53;;;24.13;;
2544;SDS011;36212;48.838;9.142;2022-08-19T04:26:20;26.73;;;24.33;;
2544;SDS011;36212;48.838;9.142;2022-08-19T04:28:56;28.70;;;26.00;;
2544;SDS011;36212;48.838;9.142;2022-08-19T04:31:34;26.53;;;24.13;;
2544;SDS011;36212;48.838;9.142;2022-08-19T04:34:11;28.83;;;26.13;;
2544;SDS011;36212;48.838;9.142;2022-08-19T04:36:46;25.73;;;23.53;;
2544;SDS011;36212;48.838;9.142;2022-08-19T04:39:29;26.80;;;24.40;;
2544;SDS011;36212;48.838;9.142;2022-08-19T04:42:40;26.93;;;24.53;;
2544;SDS011;36212;48.838;9.142;2022-08-19T04:45:13;27.37;;;24.97;;
2544;SDS011;36212;48.838;9.142;2022-08-19T04:47:47;26.23;;;24.00;;
2544;SDS011;36212;48.838;9.142;2022-08-19T04:50:42;30.67;;;27.10;;
2544;SDS011;36212;48.838;9.142;2022-08-19T04:53:14;27.57;;;25.07;;
2544;SDS011;36212;48.838;9.142;2022-08-19T04:55:47;26.20;;;23.80;;
2544;SDS011;36212;48.838;9.142;2022-08-19T04:58:19;26.97;;;24.57;;
2544;SDS011;36212;48.838;9.142;2022-08-19T05:00:51;27.70;;;25.30;;
2544;SDS011;36212;48.838;9.142;2022-08-19T05:03:23;26.37;;;23.97;;
2544;SDS011;36212;48.838;9.142;2022-08-19T05:06:04;28.40;;;25.53;;
2544;SDS011;36212;48.838;9.142;2022-08-19T05:08:43;28.30;;;25.60;;
2544;SDS011;36212;48.838;9.142;2022-08-19T05:11:17;26.17;;;23.97;;
2544;SDS011;36212;48.838;9.142;2022-08-19T05:14:02;27.23;;;24.93;;
2544;SDS011;36212;48.838;9.142;2022-08-19T05:16:36;26.40;;;24.00;;
2544;SDS011;36212;48.838;9.142;2022-08-19T05:19:08;25.97;;;23.70;;
2544;SDS011;36212;48.838;9.142;2022-08-19T05:22:18;25.27;;;23.07;;
2544;SDS011;36212;48.838;9.142;2022-08-19T05:25:11;25.60;;;23.40;;
2544;SDS011;36212;48.838;9.142;2022-08-19T05:27:48;27.33;;;24.93;;
2544;SDS011;36212;48.838;9.142;2022-08-19T05:30:20;28.13;;;25.83;;
2544;SDS011;36212;48.838;9.142;2022-08-19T05:33:15;27.00;;;24.60;;
2544;SDS011;36212;48.838;9.142;2022-08-19T05:35:48;27.90;;;25.33;;
2544;SDS011;36212;48.838;9.142;2022-08-19T05:38:20;25.17;;;22.87;;
2544;SDS011;36212;48.838;9.142;2022-08-19T05:40:53;29.37;;;26.53;;
2544;SDS011;36212;48.838;9.142;2022-08-19T05:43:25;26.17;;;23.93;;
2544;SDS011;36212;48.838;9.142;2022-08-19T05:45:57;28.00;;;25.50;;
2544;SDS011;36212;48.838;9.142;2022-08-19T05:48:29;26.87;;;24.37;;
2544;SDS011;36212;48.838;9.142;2022-08-19T05:51:04;26.67;;;24.23;;
2544;SDS011;36212;48.838;9.142;2022-08-19T05:53:38;27.60;;;25.20;;
2544;SDS011;36212;48.838;9.142;2022-08-19T05:56:12;26.60;;;24.40;;
2544;SDS011;36212;48.838;9.142;2022-08-19T05:58:48;23.93;;;21.70;;
2544;SDS011;36212;48.838;9.142;2022-08-19T06:01:20;26.53;;;24.03;;
2544;SDS011;36212;48.838;9.142;2022-08-19T06:03:53;25.83;;;23.33;;
2544;SDS011;36212;48.838;9.142;2022-08-19T06:06:25;27.40;;;24.70;;
2544;SDS011;36212;48.838;9.142;2022-08-19T06:08:57;26.03;;;23.83;;
2544;SDS011;36212;48.838;9.142;2022-08-19T06:14:15;26.93;;;24.57;;
2544;SDS011;36212;48.838;9.142;2022-08-19T06:16:58;27.20;;;24.80;;
2544;SDS011;36212;48.838;9.142;2022-08-19T06:19:37;27.50;;;24.97;;
2544;SDS011;36212;48.838;9.142;2022-08-19T06:22:14;27.27;;;24.67;;
2544;SDS011;36212;48.838;9.142;2022-08-19T06:24:46;26.50;;;24.20;;
2544;SDS011;36212;48.838;9.142;2022-08-19T06:27:23;27.23;;;24.83;;
2544;SDS011;36212;48.838;9.142;2022-08-19T06:29:55;25.97;;;23.77;;
2544;SDS011;36212;48.838;9.142;2022-08-19T06:32:27;27.90;;;25.47;;
2544;SDS011;36212;48.838;9.142;2022-08-19T06:35:00;26.80;;;24.57;;
2544;SDS011;36212;48.838;9.142;2022-08-19T06:37:33;27.10;;;24.80;;
2544;SDS011;36212;48.838;9.142;2022-08-19T06:40:06;25.50;;;23.30;;
2544;SDS011;36212;48.838;9.142;2022-08-19T06:42:41;27.37;;;24.67;;
2544;SDS011;36212;48.838;9.142;2022-08-19T06:45:35;25.47;;;23.17;;
2544;SDS011;36212;48.838;9.142;2022-08-19T06:48:10;26.47;;;24.03;;
2544;SDS011;36212;48.838;9.142;2022-08-19T06:50:42;26.17;;;23.77;;
2544;SDS011;36212;48.838;9.142;2022-08-19T06:53:14;27.23;;;24.63;;
2544;SDS011;36212;48.838;9.142;2022-08-19T06:55:47;24.80;;;22.70;;
2544;SDS011;36212;48.838;9.142;2022-08-19T06:58:32;26.67;;;24.37;;
2544;SDS011;36212;48.838;9.142;2022-08-19T07:01:04;26.73;;;24.10;;
2544;SDS011;36212;48.838;9.142;2022-08-19T07:03:40;24.93;;;22.53;;
2544;SDS011;36212;48.838;9.142;2022-08-19T07:06:13;26.27;;;23.57;;
2544;SDS011;36212;48.838;9.142;2022-08-19T07:09:09;25.70;;;23.50;;
2544;SDS011;36212;48.838;9.142;2022-08-19T07:11:49;26.77;;;24.20;;
2544;SDS011;36212;48.838;9.142;2022-08-19T07:14:25;25.37;;;22.47;;
2544;SDS011;36212;48.838;9.142;2022-08-19T07:16:58;25.93;;;23.50;;
2544;SDS011;36212;48.838;9.142;2022-08-19T07:19:31;24.87;;;22.50;;
2544;SDS011;36212;48.838;9.142;2022-08-19T07:22:05;25.33;;;23.03;;
2544;SDS011;36212;48.838;9.142;2022-08-19T07:24:44;24.03;;;21.83;;
2544;SDS011;36212;48.838;9.142;2022-08-19T07:27:22;25.20;;;23.07;;
2544;SDS011;36212;48.838;9.142;2022-08-19T07:29:55;23.37;;;21.30;;
2544;SDS011;36212;48.838;9.142;2022-08-19T07:32:30;24.00;;;21.80;;
2544;SDS011;36212;48.838;9.142;2022-08-19T07:35:03;23.40;;;21.30;;
2544;SDS011;36212;48.838;9.142;2022-08-19T07:37:38;24.80;;;22.50;;
2544;SDS011;36212;48.838;9.142;2022-08-19T07:40:15;23.83;;;21.73;;
2544;SDS011;36212;48.838;9.142;2022-08-19T07:42:48;21.77;;;19.90;;
2544;SDS011;36212;48.838;9.142;2022-08-19T07:45:20;23.13;;;21.07;;
2544;SDS011;36212;48.838;9.142;2022-08-19T07:47:52;22.93;;;21.00;;
2544;SDS011;36212;48.838;9.142;2022-08-19T07:50:24;25.13;;;22.50;;
2544;SDS011;36212;48.838;9.142;2022-08-19T07:52:56;22.50;;;20.17;;
2544;SDS011;36212;48.838;9.142;2022-08-19T07:55:29;23.93;;;21.80;;
2544;SDS011;36212;48.838;9.142;2022-08-19T07:58:14;21.57;;;19.77;;
2544;SDS011;36212;48.838;9.142;2022-08-19T08:00:51;21.23;;;19.37;;
2544;SDS011;36212;48.838;9.142;2022-08-19T08:03:24;23.30;;;21.20;;
2544;SDS011;36212;48.838;9.142;2022-08-19T08:06:37;23.33;;;21.07;;
2544;SDS011;36212;48.838;9.142;2022-08-19T08:09:47;21.10;;;19.23;;
2544;SDS011;36212;48.838;9.142;2022-08-19T08:12:25;24.53;;;21.77;;
2544;SDS011;36212;48.838;9.142;2022-08-19T08:15:10;21.97;;;20.07;;
2544;SDS011;36212;48.838;9.142;2022-08-19T08:17:48;21.70;;;19.83;;
2544;SDS011;36212;48.838;9.142;2022-08-19T08:20:22;21.43;;;19.73;;
2544;SDS011;36212;48.838;9.142;2022-08-19T08:22:54;22.97;;;20.90;;
2544;SDS011;36212;48.838;9.142;2022-08-19T08:25:54;23.60;;;19.77;;
2544;SDS011;36212;48.838;9.142;2022-08-19T08:28:28;22.43;;;20.53;;
2544;SDS011;36212;48.838;9.142;2022-08-19T08:31:00;21.47;;;19.43;;
2544;SDS011;36212;48.838;9.142;2022-08-19T08:33:40;20.47;;;18.87;;
2544;SDS011;36212;48.838;9.142;2022-08-19T08:36:13;22.90;;;20.83;;
2544;SDS011;36212;48.838;9.142;2022-08-19T08:38:46;22.83;;;20.70;;
2544;SDS011;36212;48.838;9.142;2022-08-19T08:44:21;20.60;;;19.00;;
2544;SDS011;36212;48.838;9.142;2022-08-19T08:47:17;21.97;;;19.97;;
2544;SDS011;36212;48.838;9.142;2022-08-19T08:50:01;20.63;;;18.73;;
2544;SDS011;36212;48.838;9.142;2022-08-19T08:52:52;21.97;;;20.17;;
2544;SDS011;36212;48.838;9.142;2022-08-19T08:55:28;20.83;;;19.03;;
2544;SDS011;36212;48.838;9.142;2022-08-19T08:59:10;21.87;;;19.30;;
2544;SDS011;36212;48.838;9.142;2022-08-19T09:01:50;19.57;;;18.07;;
2544;SDS011;36212;48.838;9.142;2022-08-19T09:04:22;21.53;;;19.63;;
2544;SDS011;36212;48.838;9.142;2022-08-19T09:06:58;19.27;;;17.60;;
2544;SDS011;36212;48.838;9.142;2022-08-19T09:16:07;18.80;;;17.10;;
2544;SDS011;36212;48.838;9.142;2022-08-19T09:18:50;18.63;;;17.00;;
2544;SDS011;36212;48.838;9.142;2022-08-19T09:21:28;19.43;;;17.80;;
2544;SDS011;36212;48.838;9.142;2022-08-19T09:24:05;19.80;;;18.00;;
2544;SDS011;36212;48.838;9.142;2022-08-19T09:26:38;19.03;;;17.03;;
2544;SDS011;36212;48.838;9.142;2022-08-19T09:29:22;18.37;;;16.97;;
2544;SDS011;36212;48.838;9.142;2022-08-19T09:31:54;18.77;;;16.80;;
2544;SDS011;36212;48.838;9.142;2022-08-19T09:34:26;18.80;;;17.00;;
2544;SDS011;36212;48.838;9.142;2022-08-19T09:37:08;18.50;;;16.80;;
2544;SDS011;36212;48.838;9.142;2022-08-19T09:39:41;18.63;;;17.13;;
2544;SDS011;36212;48.838;9.142;2022-08-19T09:42:14;17.10;;;15.70;;
2544;SDS011;36212;48.838;9.142;2022-08-19T09:44:50;17.27;;;15.80;;
2544;SDS011;36212;48.838;9.142;2022-08-19T09:47:22;16.37;;;14.90;;
2544;SDS011;36212;48.838;9.142;2022-08-19T09:49:54;16.93;;;15.53;;
2544;SDS011;36212;48.838;9.142;2022-08-19T09:52:28;17.70;;;16.20;;
2544;SDS011;36212;48.838;9.142;2022-08-19T09:55:07;16.60;;;15.00;;
2544;SDS011;36212;48.838;9.142;2022-08-19T09:57:46;16.60;;;15.40;;
2544;SDS011;36212;48.838;9.142;2022-08-19T10:00:18;16.20;;;14.90;;
2544;SDS011;36212;48.838;9.142;2022-08-19T10:02:51;16.20;;;15.00;;
2544;SDS011;36212;48.838;9.142;2022-08-19T10:05:23;16.00;;;14.63;;
2544;SDS011;36212;48.838;9.142;2022-08-19T10:08:24;16.93;;;15.20;;
2544;SDS011;36212;48.838;9.142;2022-08-19T10:11:04;14.80;;;13.50;;
2544;SDS011;36212;48.838;9.142;2022-08-19T10:13:58;16.27;;;14.93;;
2544;SDS011;36212;48.838;9.142;2022-08-19T10:16:32;15.77;;;14.50;;
2544;SDS011;36212;48.838;9.142;2022-08-19T10:19:11;16.43;;;15.00;;
2544;SDS011;36212;48.838;9.142;2022-08-19T10:21:44;16.70;;;15.00;;
2544;SDS011;36212;48.838;9.142;2022-08-19T10:24:19;15.67;;;14.43;;
2544;SDS011;36212;48.838;9.142;2022-08-19T10:26:54;15.67;;;14.47;;
2544;SDS011;36212;48.838;9.142;2022-08-19T10:29:31;13.60;;;12.60;;
2544;SDS011;36212;48.838;9.142;2022-08-19T10:32:06;14.60;;;13.40;;
2544;SDS011;36212;48.838;9.142;2022-08-19T10:34:40;15.07;;;13.97;;
2544;SDS011;36212;48.838;9.142;2022-08-19T10:37:19;12.87;;;11.80;;
2544;SDS011;36212;48.838;9.142;2022-08-19T10:39:54;14.60;;;13.10;;
2544;SDS011;36212;48.838;9.142;2022-08-19T10:42:27;12.30;;;11.40;;
2544;SDS011;36212;48.838;9.142;2022-08-19T10:45:02;13.27;;;12.17;;
2544;SDS011;36212;48.838;9.142;2022-08-19T10:47:36;12.77;;;11.70;;
2544;SDS011;36212;48.838;9.142;2022-08-19T10:50:09;13.20;;;12.10;;
2544;SDS011;36212;48.838;9.142;2022-08-19T10:53:20;13.53;;;11.60;;
2544;SDS011;36212;48.838;9.142;2022-08-19T10:55:56;11.83;;;11.03;;
2544;SDS011;36212;48.838;9.142;2022-08-19T10:59:07;11.70;;;10.90;;
2544;SDS011;36212;48.838;9.142;2022-08-19T11:01:39;11.37;;;10.47;;
2544;SDS011;36212;48.838;9.142;2022-08-19T11:04:15;11.17;;;10.23;;
2544;SDS011;36212;48.838;9.142;2022-08-19T11:06:49;11.80;;;10.83;;
2544;SDS011;36212;48.838;9.142;2022-08-19T11:09:23;12.23;;;11.23;;
2544;SDS011;36212;48.838;9.142;2022-08-19T11:12:16;11.30;;;10.47;;
2544;SDS011;36212;48.838;9.142;2022-08-19T11:14:49;11.70;;;10.60;;
2544;SDS011;36212;48.838;9.142;2022-08-19T11:17:22;10.67;;;9.90;;
2544;SDS011;36212;48.838;9.142;2022-08-19T11:19:55;14.13;;;10.03;;
2544;SDS011;36212;48.838;9.142;2022-08-19T11:22:27;10.13;;;9.33;;
2544;SDS011;36212;48.838;9.142;2022-08-19T11:25:11;10.93;;;10.03;;
2544;SDS011;36212;48.838;9.142;2022-08-19T11:27:44;11.90;;;9.80;;
2544;SDS011;36212;48.838;9.142;2022-08-19T11:30:21;10.33;;;9.30;;
2544;SDS011;36212;48.838;9.142;2022-08-19T11:32:53;10.50;;;9.37;;
2544;SDS011;36212;48.838;9.142;2022-08-19T11:35:25;10.70;;;9.90;;
2544;SDS011;36212;48.838;9.142;2022-08-19T11:37:58;10.43;;;9.63;;
2544;SDS011;36212;48.838;9.142;2022-08-19T11:40:31;10.20;;;9.13;;
2544;SDS011;36212;48.838;9.142;2022-08-19T11:43:04;9.67;;;8.60;;
2544;SDS011;36212;48.838;9.142;2022-08-19T11:45:37;9.90;;;9.20;;
2544;SDS011;36212;48.838;9.142;2022-08-19T11:48:09;9.83;;;9.13;;
2544;SDS011;36212;48.838;9.142;2022-08-19T11:50:42;10.57;;;9.87;;
2544;SDS011;36212;48.838;9.142;2022-08-19T11:53:16;9.90;;;9.00;;
2544;SDS011;36212;48.838;9.142;2022-08-19T11:55:50;10.90;;;9.93;;
2544;SDS011;36212;48.838;9.142;2022-08-19T11:58:27;12.30;;;10.60;;
2544;SDS011;36212;48.838;9.142;2022-08-19T12:01:01;12.50;;;10.03;;
2544;SDS011;36212;48.838;9.142;2022-08-19T12:03:39;10.37;;;9.57;;
2544;SDS011;36212;48.838;9.142;2022-08-19T12:06:15;10.90;;;10.00;;
2544;SDS011;36212;48.838;9.142;2022-08-19T12:08:52;12.80;;;10.20;;
2544;SDS011;36212;48.838;9.142;2022-08-19T12:11:26;9.50;;;8.70;;
2544;SDS011;36212;48.838;9.142;2022-08-19T12:14:02;10.60;;;9.80;;
2544;SDS011;36212;48.838;9.142;2022-08-19T12:16:35;9.70;;;9.10;;
2544;SDS011;36212;48.838;9.142;2022-08-19T12:19:15;11.33;;;10.33;;
2544;SDS011;36212;48.838;9.142;2022-08-19T12:21:58;10.47;;;9.60;;
2544;SDS011;36212;48.838;9.142;2022-08-19T12:24:36;9.33;;;8.73;;
2544;SDS011;36212;48.838;9.142;2022-08-19T12:27:08;89.77;;;13.27;;
2544;SDS011;36212;48.838;9.142;2022-08-19T12:29:43;12.97;;;9.70;;
2544;SDS011;36212;48.838;9.142;2022-08-19T12:32:16;10.37;;;9.37;;
2544;SDS011;36212;48.838;9.142;2022-08-19T12:34:48;10.77;;;10.03;;
2544;SDS011;36212;48.838;9.142;2022-08-19T12:37:21;13.97;;;9.30;;
2544;SDS011;36212;48.838;9.142;2022-08-19T12:39:53;11.87;;;9.57;;
2544;SDS011;36212;48.838;9.142;2022-08-19T12:42:25;9.00;;;8.30;;
2544;SDS011;36212;48.838;9.142;2022-08-19T12:44:57;8.97;;;8.20;;
2544;SDS011;36212;48.838;9.142;2022-08-19T12:47:30;9.40;;;8.50;;
2544;SDS011;36212;48.838;9.142;2022-08-19T12:50:05;9.97;;;9.20;;
2544;SDS011;36212;48.838;9.142;2022-08-19T12:52:40;8.43;;;7.70;;
2544;SDS011;36212;48.838;9.142;2022-08-19T12:55:13;9.63;;;8.83;;
2544;SDS011;36212;48.838;9.142;2022-08-19T12:57:47;8.27;;;7.67;;
2544;SDS011;36212;48.838;9.142;2022-08-19T13:00:21;9.73;;;8.03;;
2544;SDS011;36212;48.838;9.142;2022-08-19T13:02:54;7.60;;;7.10;;
2544;SDS011;36212;48.838;9.142;2022-08-19T13:05:29;8.50;;;7.33;;
2544;SDS011;36212;48.838;9.142;2022-08-19T13:08:04;10.43;;;8.53;;
2544;SDS011;36212;48.838;9.142;2022-08-19T13:10:37;7.50;;;6.90;;
2544;SDS011;36212;48.838;9.142;2022-08-19T13:13:09;13.07;;;9.07;;
2544;SDS011;36212;48.838;9.142;2022-08-19T13:15:42;8.33;;;7.70;;
2544;SDS011;36212;48.838;9.142;2022-08-19T13:18:17;9.07;;;8.10;;
2544;SDS011;36212;48.838;9.142;2022-08-19T13:20:49;7.77;;;7.17;;
2544;SDS011;36212;48.838;9.142;2022-08-19T13:23:23;8.70;;;7.90;;
2544;SDS011;36212;48.838;9.142;2022-08-19T13:25:56;8.00;;;7.40;;
2544;SDS011;36212;48.838;9.142;2022-08-19T13:28:31;11.53;;;7.67;;
2544;SDS011;36212;48.838;9.142;2022-08-19T13:31:42;8.10;;;7.30;;
2544;SDS011;36212;48.838;9.142;2022-08-19T13:34:53;8.97;;;8.17;;
2544;SDS011;36212;48.838;9.142;2022-08-19T13:37:25;10.60;;;9.90;;
2544;SDS011;36212;48.838;9.142;2022-08-19T13:40:17;13.90;;;10.90;;
2544;SDS011;36212;48.838;9.142;2022-08-19T13:42:55;13.60;;;12.40;;
2544;SDS011;36212;48.838;9.142;2022-08-19T13:45:27;14.83;;;13.53;;
2544;SDS011;36212;48.838;9.142;2022-08-19T13:48:05;19.30;;;17.60;;
2544;SDS011;36212;48.838;9.142;2022-08-19T13:50:41;22.17;;;20.37;;
2544;SDS011;36212;48.838;9.142;2022-08-19T13:53:16;23.27;;;21.27;;
2544;SDS011;36212;48.838;9.142;2022-08-19T13:55:49;25.77;;;23.50;;
2544;SDS011;36212;48.838;9.142;2022-08-19T13:58:23;26.47;;;24.30;;
2544;SDS011;36212;48.838;9.142;2022-08-19T14:00:55;25.47;;;23.20;;
2544;SDS011;36212;48.838;9.142;2022-08-19T14:03:29;27.03;;;24.43;;
2544;SDS011;36212;48.838;9.142;2022-08-19T14:06:03;26.43;;;23.97;;
2544;SDS011;36212;48.838;9.142;2022-08-19T14:08:36;27.30;;;24.87;;
2544;SDS011;36212;48.838;9.142;2022-08-19T14:11:16;29.00;;;26.30;;
2544;SDS011;36212;48.838;9.142;2022-08-19T14:13:49;28.27;;;25.77;;
2544;SDS011;36212;48.838;9.142;2022-08-19T14:16:21;28.97;;;26.37;;
2544;SDS011;36212;48.838;9.142;2022-08-19T14:18:54;28.43;;;26.13;;
2544;SDS011;36212;48.838;9.142;2022-08-19T14:21:27;29.00;;;26.60;;
2544;SDS011;36212;48.838;9.142;2022-08-19T14:23:59;27.60;;;25.20;;
2544;SDS011;36212;48.838;9.142;2022-08-19T14:26:31;27.13;;;24.50;;
2544;SDS011;36212;48.838;9.142;2022-08-19T14:29:04;23.77;;;21.77;;
2544;SDS011;36212;48.838;9.142;2022-08-19T14:31:36;25.77;;;23.57;;
2544;SDS011;36212;48.838;9.142;2022-08-19T14:34:12;26.30;;;24.00;;
2544;SDS011;36212;48.838;9.142;2022-08-19T14:36:44;25.17;;;22.97;;
2544;SDS011;36212;48.838;9.142;2022-08-19T14:39:20;25.43;;;23.33;;
2544;SDS011;36212;48.838;9.142;2022-08-19T14:41:52;25.83;;;23.40;;
2544;SDS011;36212;48.838;9.142;2022-08-19T14:44:24;25.43;;;23.27;;
2544;SDS011;36212;48.838;9.142;2022-08-19T14:46:57;24.50;;;22.07;;
2544;SDS011;36212;48.838;9.142;2022-08-19T14:49:29;23.27;;;21.20;;
2544;SDS011;36212;48.838;9.142;2022-08-19T14:52:06;20.90;;;18.90;;
2544;SDS011;36212;48.838;9.142;2022-08-19T14:54:38;21.87;;;20.03;;
2544;SDS011;36212;48.838;9.142;2022-08-19T14:57:14;21.40;;;19.70;;
2544;SDS011;36212;48.838;9.142;2022-08-19T14:59:47;20.70;;;19.13;;
2544;SDS011;36212;48.838;9.142;2022-08-19T15:02:19;21.73;;;19.63;;
2544;SDS011;36212;48.838;9.142;2022-08-19T15:05:06;19.83;;;18.30;;
2544;SDS011;36212;48.838;9.142;2022-08-19T15:07:39;19.80;;;18.07;;
2544;SDS011;36212;48.838;9.142;2022-08-19T15:10:13;20.17;;;18.23;;
2544;SDS011;36212;48.838;9.142;2022-08-19T15:12:46;18.37;;;16.97;;
2544;SDS011;36212;48.838;9.142;2022-08-19T15:15:23;19.17;;;17.53;;
2544;SDS011;36212;48.838;9.142;2022-08-19T15:17:55;19.47;;;17.73;;
2544;SDS011;36212;48.838;9.142;2022-08-19T15:20:34;18.17;;;16.67;;
2544;SDS011;36212;48.838;9.142;2022-08-19T15:23:06;19.10;;;17.50;;
2544;SDS011;36212;48.838;9.142;2022-08-19T15:25:39;20.80;;;19.20;;
2544;SDS011;36212;48.838;9.142;2022-08-19T15:28:13;20.23;;;18.63;;
2544;SDS011;36212;48.838;9.142;2022-08-19T15:30:47;19.23;;;17.83;;
2544;SDS011;36212;48.838;9.142;2022-08-19T15:33:21;19.80;;;18.20;;
2544;SDS011;36212;48.838;9.142;2022-08-19T15:35:54;19.93;;;18.40;;
2544;SDS011;36212;48.838;9.142;2022-08-19T15:38:29;18.90;;;17.50;;
2544;SDS011;36212;48.838;9.142;2022-08-19T15:41:04;19.17;;;17.57;;
2544;SDS011;36212;48.838;9.142;2022-08-19T15:43:58;18.87;;;17.40;;
2544;SDS011;36212;48.838;9.142;2022-08-19T15:46:40;17.97;;;16.37;;